createdAt,value
2023-03-29T00:02:49.429Z,49.43
2023-03-29T00:05:57.745Z,50.33
2023-03-29T00:09:21.925Z,49.58
2023-03-29T00:12:27.183Z,49.42
2023-03-29T00:15:31.655Z,50.04
2023-03-29T00:18:38.649Z,50.08
2023-03-29T00:21:44.775Z,49.46
2023-03-29T00:24:57.724Z,49.96
2023-03-29T00:28:02.640Z,50.35
2023-03-29T00:31:09.357Z,50.49
2023-03-29T00:34:16.599Z,50.91
2023-03-29T00:37:27.217Z,50.22
2023-03-29T00:40:36.372Z,50.81
2023-03-29T00:43:56.057Z,50.76
2023-03-29T00:47:00.938Z,49.53
2023-03-29T00:50:14.690Z,49.98
2023-03-29T00:53:23.140Z,50.13
2023-03-29T00:56:37.629Z,49.89
2023-03-29T00:59:44.614Z,50.09
2023-03-29T01:02:54.981Z,50.71
2023-03-29T01:06:04.213Z,50.95
2023-03-29T01:09:13.225Z,50.50
2023-03-29T01:12:22.528Z,51.36
2023-03-29T01:15:30.815Z,51.03
2023-03-29T01:18:37.769Z,51.01
2023-03-29T01:21:49.647Z,51.15
2023-03-29T01:25:07.977Z,51.33
2023-03-29T01:28:20.816Z,51.57
2023-03-29T01:31:29.109Z,51.65
2023-03-29T01:34:40.593Z,51.82
2023-03-29T01:37:53.127Z,51.48
2023-03-29T01:40:58.939Z,52.38
2023-03-29T01:44:10.473Z,51.59
2023-03-29T01:47:25.455Z,51.99
2023-03-29T01:50:39.949Z,51.95
2023-03-29T01:53:50.918Z,52.24
2023-03-29T01:56:58.270Z,52.35
2023-03-29T02:00:11.322Z,51.77
2023-03-29T02:03:22.114Z,52.22
2023-03-29T02:06:29.736Z,52.21
2023-03-29T02:09:38.069Z,52.38
2023-03-29T02:12:42.788Z,52.51
2023-03-29T02:15:50.531Z,52.65
2023-03-29T02:18:58.236Z,52.86
2023-03-29T02:22:06.784Z,52.99
2023-03-29T02:25:13.945Z,52.63
2023-03-29T02:28:19.031Z,52.56
2023-03-29T02:31:29.815Z,52.32
2023-03-29T02:34:40.304Z,52.35
2023-03-29T02:37:49.676Z,52.78
2023-03-29T02:40:55.962Z,52.48
2023-03-29T02:44:05.206Z,52.80
2023-03-29T02:47:18.628Z,53.08
2023-03-29T02:50:25.035Z,53.06
2023-03-29T02:53:35.083Z,53.27
2023-03-29T02:56:48.508Z,53.56
2023-03-29T02:59:54.345Z,52.78
2023-03-29T03:03:02.107Z,52.97
2023-03-29T03:06:10.710Z,53.02
2023-03-29T03:09:15.756Z,53.06
2023-03-29T03:12:23.239Z,53.17
2023-03-29T03:15:28.316Z,52.81
2023-03-29T03:18:35.713Z,53.01
2023-03-29T03:21:40.300Z,52.88
2023-03-29T03:24:48.161Z,52.73
2023-03-29T03:27:55.590Z,53.41
2023-03-29T03:31:01.532Z,52.85
2023-03-29T03:34:26.797Z,53.32
2023-03-29T03:37:36.025Z,53.49
2023-03-29T03:40:44.460Z,53.35
2023-03-29T03:43:50.181Z,53.10
2023-03-29T03:46:55.253Z,53.71
2023-03-29T03:50:00.602Z,53.33
2023-03-29T03:53:05.723Z,53.65
2023-03-29T03:56:32.409Z,53.76
2023-03-29T03:59:49.261Z,53.74
2023-03-29T04:03:02.564Z,53.84
2023-03-29T04:06:10.402Z,54.31
2023-03-29T04:09:46.073Z,54.00
2023-03-29T04:13:04.765Z,53.96
2023-03-29T04:16:13.143Z,54.13
2023-03-29T04:19:21.988Z,53.32
2023-03-29T04:22:28.137Z,53.75
2023-03-29T04:25:32.643Z,53.13
2023-03-29T04:28:39.099Z,53.44
2023-03-29T04:31:58.038Z,53.08
2023-03-29T04:35:27.373Z,53.43
2023-03-29T04:38:36.326Z,53.37
2023-03-29T04:41:41.660Z,52.97
2023-03-29T04:44:57.659Z,53.46
2023-03-29T04:48:17.274Z,53.73
2023-03-29T04:51:24.830Z,53.06
2023-03-29T04:54:32.501Z,53.49
2023-03-29T04:57:51.536Z,52.62
2023-03-29T05:00:59.504Z,52.12
2023-03-29T05:04:12.982Z,51.54
2023-03-29T05:07:27.716Z,50.77
2023-03-29T05:10:33.596Z,50.97
2023-03-29T05:13:37.880Z,50.84
2023-03-29T05:16:42.882Z,50.14
2023-03-29T05:19:48.147Z,49.18
2023-03-29T05:23:03.597Z,48.82
2023-03-29T05:26:35.650Z,48.55
2023-03-29T05:29:41.421Z,49.31
2023-03-29T05:33:00.505Z,49.42
2023-03-29T05:36:09.535Z,49.44
2023-03-29T05:39:18.965Z,49.24
2023-03-29T05:42:28.550Z,48.37
2023-03-29T05:45:36.263Z,47.84
2023-03-29T05:49:03.621Z,47.74
2023-03-29T05:52:26.823Z,45.72
2023-03-29T05:55:31.164Z,44.06
2023-03-29T05:59:01.401Z,44.22
2023-03-29T06:02:07.016Z,45.71
2023-03-29T06:05:16.223Z,45.03
2023-03-29T06:08:34.225Z,39.70
2023-03-29T06:12:01.987Z,40.68
2023-03-29T06:15:16.731Z,40.28
2023-03-29T06:18:25.353Z,37.92
2023-03-29T06:21:29.512Z,37.92
2023-03-29T06:24:36.900Z,36.21
2023-03-29T06:28:52.200Z,35.59
2023-03-29T06:31:58.856Z,35.18
2023-03-29T06:36:38.740Z,34.74
2023-03-29T06:40:14.696Z,32.90
2023-03-29T06:43:21.302Z,34.25
2023-03-29T06:46:43.138Z,34.76
2023-03-29T06:49:59.707Z,33.13
2023-03-29T06:53:18.075Z,31.53
2023-03-29T07:00:45.942Z,30.97
2023-03-29T07:08:15.615Z,29.54
2023-03-29T07:11:36.576Z,28.46
2023-03-29T07:19:09.727Z,28.34
2023-03-29T07:27:06.041Z,29.50
2023-03-29T07:30:16.918Z,28.64
2023-03-29T07:33:25.884Z,29.28
2023-03-29T07:36:51.720Z,25.46
2023-03-29T07:39:59.804Z,25.34
2023-03-29T07:43:38.011Z,25.76
2023-03-29T07:46:47.589Z,25.19
2023-03-29T07:49:52.593Z,23.21
2023-03-29T07:53:38.740Z,24.05
2023-03-29T07:57:37.178Z,24.53
2023-03-29T08:09:17.218Z,23.85
2023-03-29T08:12:41.134Z,25.31
2023-03-29T08:15:53.737Z,27.28
2023-03-29T08:19:09.555Z,26.74
2023-03-29T08:22:54.291Z,28.31
2023-03-29T08:26:24.252Z,27.97
2023-03-29T08:29:29.481Z,28.14
2023-03-29T08:32:36.893Z,29.48
2023-03-29T08:35:46.865Z,30.03
2023-03-29T08:38:58.603Z,29.98
2023-03-29T08:42:21.260Z,30.91
2023-03-29T08:45:35.621Z,30.62
2023-03-29T08:48:46.848Z,32.29
2023-03-29T08:51:59.752Z,31.81
2023-03-29T08:55:09.555Z,32.47
2023-03-29T08:58:36.233Z,31.45
2023-03-29T09:01:46.783Z,31.47
2023-03-29T09:05:03.278Z,31.66
2023-03-29T09:08:25.026Z,33.08
2023-03-29T09:11:44.890Z,32.09
2023-03-29T09:15:12.314Z,32.05
2023-03-29T09:18:34.278Z,32.76
2023-03-29T09:21:47.950Z,31.77
2023-03-29T09:25:07.472Z,32.43
2023-03-29T09:28:20.499Z,32.97
2023-03-29T09:31:35.415Z,32.45
2023-03-29T09:34:46.258Z,33.23
2023-03-29T09:38:01.670Z,32.70
2023-03-29T09:41:20.320Z,32.14
2023-03-29T09:44:31.260Z,32.75
2023-03-29T09:47:47.286Z,32.17
2023-03-29T09:50:53.344Z,31.64
2023-03-29T09:54:01.217Z,32.23
2023-03-29T09:57:33.629Z,31.65
2023-03-29T10:00:49.301Z,31.22
2023-03-29T10:03:54.701Z,31.12
2023-03-29T10:07:01.567Z,30.80
2023-03-29T10:10:11.977Z,32.49
2023-03-29T10:13:24.590Z,30.24
2023-03-29T10:16:32.021Z,30.73
2023-03-29T10:19:40.132Z,32.35
2023-03-29T10:22:51.282Z,31.72
2023-03-29T10:25:58.015Z,31.16
2023-03-29T10:29:06.398Z,30.99
2023-03-29T10:32:20.108Z,30.05
2023-03-29T10:35:30.624Z,30.48
2023-03-29T10:38:37.750Z,30.48
2023-03-29T10:41:45.127Z,30.94
2023-03-29T10:44:55.724Z,29.72
2023-03-29T10:48:00.955Z,30.94
2023-03-29T10:51:07.795Z,31.08
2023-03-29T10:54:16.173Z,30.66
2023-03-29T10:57:35.621Z,31.54
2023-03-29T11:00:51.316Z,31.34
2023-03-29T11:04:11.520Z,30.74
2023-03-29T11:07:28.885Z,30.51
2023-03-29T11:10:44.969Z,31.29
2023-03-29T11:14:01.650Z,30.36
2023-03-29T11:17:20.786Z,30.72
2023-03-29T11:20:38.007Z,30.21
2023-03-29T11:23:51.437Z,30.61
2023-03-29T11:27:11.330Z,30.46
2023-03-29T11:30:27.368Z,30.31
2023-03-29T11:33:43.276Z,29.53
2023-03-29T11:36:54.221Z,30.75
2023-03-29T11:40:10.171Z,29.65
2023-03-29T11:43:20.696Z,29.73
2023-03-29T11:46:36.144Z,30.66
2023-03-29T11:49:49.334Z,28.72
2023-03-29T11:52:57.883Z,29.10
2023-03-29T11:56:11.090Z,27.80
2023-03-29T11:59:20.036Z,29.96
2023-03-29T12:02:36.896Z,30.36
2023-03-29T12:05:48.471Z,29.44
2023-03-29T12:08:58.843Z,29.44
2023-03-29T12:12:10.456Z,29.23
2023-03-29T12:15:20.585Z,29.95
2023-03-29T12:18:32.199Z,29.76
2023-03-29T12:21:38.996Z,30.33
2023-03-29T12:24:46.127Z,30.81
2023-03-29T12:28:07.900Z,29.92
2023-03-29T12:31:26.278Z,30.37
2023-03-29T12:34:54.911Z,30.15
2023-03-29T12:38:24.489Z,30.24
2023-03-29T12:41:51.963Z,29.09
2023-03-29T12:45:39.039Z,29.73
2023-03-29T12:48:57.438Z,29.67
2023-03-29T13:00:51.237Z,29.71
2023-03-29T13:04:16.403Z,29.77
2023-03-29T13:07:34.056Z,29.16
2023-03-29T13:10:43.613Z,29.36
2023-03-29T13:13:52.533Z,28.80
2023-03-29T13:17:18.382Z,29.03
2023-03-29T13:20:43.510Z,29.59
2023-03-29T13:24:08.936Z,29.08
2023-03-29T13:27:30.545Z,28.55
2023-03-29T13:30:47.641Z,29.05
2023-03-29T13:34:04.381Z,28.77
2023-03-29T13:37:34.718Z,29.81
2023-03-29T13:41:04.723Z,30.55
2023-03-29T13:44:35.335Z,30.68
2023-03-29T13:47:58.767Z,29.87
2023-03-29T13:51:28.457Z,28.88
2023-03-29T13:54:40.553Z,28.98
2023-03-29T13:58:07.344Z,28.98
2023-03-29T14:01:20.589Z,29.55
2023-03-29T14:04:36.442Z,28.78
2023-03-29T14:07:46.853Z,28.33
2023-03-29T14:10:54.669Z,28.79
2023-03-29T14:14:08.526Z,29.33
2023-03-29T14:17:20.552Z,28.48
2023-03-29T14:20:25.597Z,29.44
2023-03-29T14:23:34.010Z,29.31
2023-03-29T14:26:38.534Z,30.52
2023-03-29T14:29:47.734Z,30.09
2023-03-29T14:32:52.686Z,30.65
2023-03-29T14:35:57.456Z,30.92
2023-03-29T14:39:05.814Z,30.01
2023-03-29T14:42:20.835Z,29.79
2023-03-29T14:45:30.512Z,30.28
2023-03-29T14:48:39.271Z,30.42
2023-03-29T14:51:47.349Z,30.67
2023-03-29T14:55:10.803Z,30.74
2023-03-29T14:58:22.866Z,29.99
2023-03-29T15:01:30.781Z,30.20
2023-03-29T15:04:37.867Z,30.62
2023-03-29T15:07:45.049Z,30.75
2023-03-29T15:10:52.261Z,30.39
2023-03-29T15:14:03.907Z,30.40
2023-03-29T15:17:43.114Z,30.48
2023-03-29T15:20:56.678Z,30.45
2023-03-29T15:24:02.125Z,30.56
2023-03-29T15:27:14.802Z,30.94
2023-03-29T15:30:21.792Z,30.98
2023-03-29T15:33:34.743Z,30.73
2023-03-29T15:36:42.904Z,30.91
2023-03-29T15:39:48.573Z,31.17
2023-03-29T15:46:23.967Z,30.75
2023-03-29T15:49:38.364Z,31.39
2023-03-29T15:52:43.401Z,30.64
2023-03-29T15:55:50.788Z,30.48
2023-03-29T15:58:55.252Z,30.49
2023-03-29T16:02:01.381Z,31.04
2023-03-29T16:05:11.250Z,30.93
2023-03-29T16:08:15.993Z,30.86
2023-03-29T16:11:22.517Z,31.19
2023-03-29T16:14:37.673Z,30.83
2023-03-29T16:17:57.634Z,31.20
2023-03-29T16:21:23.530Z,31.34
2023-03-29T16:28:31.583Z,31.45
2023-03-29T16:35:53.811Z,31.89
2023-03-29T16:38:59.925Z,31.30
2023-03-29T16:42:15.245Z,31.08
2023-03-29T16:45:27.487Z,31.40
2023-03-29T16:48:32.217Z,31.37
2023-03-29T16:51:36.517Z,31.52
2023-03-29T16:54:44.164Z,31.50
2023-03-29T16:57:51.008Z,31.43
2023-03-29T17:00:58.152Z,31.83
2023-03-29T17:04:11.085Z,31.51
2023-03-29T17:07:15.211Z,32.42
2023-03-29T17:10:24.730Z,32.80
2023-03-29T17:13:32.029Z,33.20
2023-03-29T17:16:38.427Z,33.64
2023-03-29T17:19:44.268Z,34.54
2023-03-29T17:22:52.730Z,34.36
2023-03-29T17:26:01.627Z,34.76
2023-03-29T17:29:08.693Z,34.27
2023-03-29T17:32:13.344Z,35.56
2023-03-29T17:35:18.990Z,35.66
2023-03-29T17:38:27.177Z,35.80
2023-03-29T17:41:36.369Z,36.92
2023-03-29T17:44:41.541Z,36.71
2023-03-29T17:47:46.142Z,36.69
2023-03-29T17:50:50.936Z,37.07
2023-03-29T17:53:57.236Z,38.19
2023-03-29T17:57:04.741Z,38.29
2023-03-29T18:00:12.880Z,38.41
2023-03-29T18:03:19.528Z,39.07
2023-03-29T18:06:23.991Z,39.39
2023-03-29T18:09:30.631Z,39.00
2023-03-29T18:12:38.901Z,39.77
2023-03-29T18:15:46.541Z,38.91
2023-03-29T18:18:52.502Z,39.48
2023-03-29T18:22:00.138Z,39.28
2023-03-29T18:25:09.570Z,39.29
2023-03-29T18:28:16.410Z,39.39
2023-03-29T18:31:29.007Z,38.86
2023-03-29T18:34:35.048Z,38.56
2023-03-29T18:37:40.588Z,38.48
2023-03-29T18:40:46.253Z,38.66
2023-03-29T18:43:57.777Z,37.47
2023-03-29T18:47:05.234Z,37.73
2023-03-29T18:50:12.844Z,36.64
2023-03-29T18:53:29.023Z,36.48
2023-03-29T18:56:42.191Z,36.16
2023-03-29T19:00:12.827Z,36.22
2023-03-29T19:03:17.296Z,36.57
2023-03-29T19:06:22.014Z,36.68
2023-03-29T19:09:30.602Z,36.01
2023-03-29T19:12:37.401Z,37.46
2023-03-29T19:15:45.782Z,38.01
2023-03-29T19:18:51.929Z,37.25
2023-03-29T19:22:02.369Z,35.99
2023-03-29T19:25:14.047Z,35.52
2023-03-29T19:31:49.657Z,34.89
2023-03-29T19:35:10.972Z,35.33
2023-03-29T19:39:02.507Z,35.16
2023-03-29T19:42:09.744Z,35.25
2023-03-29T19:45:13.692Z,35.96
2023-03-29T19:48:23.938Z,36.02
2023-03-29T19:51:28.951Z,36.14
2023-03-29T19:54:33.024Z,36.13
2023-03-29T19:57:42.805Z,36.06
2023-03-29T20:00:47.241Z,36.02
2023-03-29T20:03:52.863Z,36.30
2023-03-29T20:07:02.165Z,36.34
2023-03-29T20:10:06.862Z,36.49
2023-03-29T20:13:11.579Z,36.93
2023-03-29T20:16:17.322Z,37.05
2023-03-29T20:19:36.724Z,36.73
2023-03-29T20:22:45.592Z,36.95
2023-03-29T20:25:50.955Z,37.22
2023-03-29T20:28:55.634Z,36.85
2023-03-29T20:32:00.230Z,36.73
2023-03-29T20:35:21.489Z,36.51
2023-03-29T20:38:27.916Z,36.58
2023-03-29T20:41:35.907Z,36.73
2023-03-29T20:44:40.420Z,37.33
2023-03-29T20:47:50.613Z,36.80
2023-03-29T20:51:04.701Z,36.86
2023-03-29T20:54:11.538Z,36.61
2023-03-29T20:57:18.102Z,36.69
2023-03-29T21:00:25.135Z,36.89
2023-03-29T21:03:29.674Z,36.93
2023-03-29T21:06:40.120Z,36.81
2023-03-29T21:09:48.480Z,36.59
2023-03-29T21:12:54.495Z,36.63
2023-03-29T21:15:58.816Z,37.18
2023-03-29T21:19:02.965Z,37.43
2023-03-29T21:22:09.080Z,38.68
2023-03-29T21:25:15.675Z,39.22
2023-03-29T21:28:22.545Z,39.27
2023-03-29T21:31:28.411Z,38.70
2023-03-29T21:34:32.429Z,38.56
2023-03-29T21:37:37.625Z,38.75
2023-03-29T21:40:41.746Z,38.83
2023-03-29T21:43:47.272Z,39.06
2023-03-29T21:46:56.126Z,38.80
2023-03-29T21:50:01.239Z,39.04
2023-03-29T21:53:08.781Z,39.21
2023-03-29T21:56:16.257Z,39.03
2023-03-29T21:59:20.745Z,39.36
2023-03-29T22:02:26.034Z,39.57
2023-03-29T22:05:30.833Z,39.33
2023-03-29T22:08:38.997Z,39.79
2023-03-29T22:11:46.129Z,40.05
2023-03-29T22:14:50.383Z,40.25
2023-03-29T22:17:57.878Z,40.78
2023-03-29T22:21:08.897Z,40.67
2023-03-29T22:24:14.918Z,40.78
2023-03-29T22:27:19.298Z,40.59
2023-03-29T22:30:23.800Z,40.90
2023-03-29T22:33:27.420Z,40.65
2023-03-29T22:36:33.250Z,41.00
2023-03-29T22:39:39.108Z,41.72
2023-03-29T22:42:43.334Z,41.59
2023-03-29T22:45:47.170Z,42.16
2023-03-29T22:48:53.392Z,42.08
2023-03-29T22:51:58.177Z,42.26
2023-03-29T22:55:03.619Z,42.39
2023-03-29T22:58:07.446Z,42.09
2023-03-29T23:01:12.117Z,41.91
2023-03-29T23:04:16.427Z,42.14
2023-03-29T23:07:21.471Z,42.47
2023-03-29T23:10:29.098Z,42.33
2023-03-29T23:13:35.493Z,42.26
2023-03-29T23:16:42.434Z,42.29
2023-03-29T23:19:46.769Z,42.25
2023-03-29T23:22:50.607Z,42.90
2023-03-29T23:25:58.002Z,43.32
2023-03-29T23:29:02.500Z,43.51
2023-03-29T23:32:06.977Z,43.70
2023-03-29T23:35:11.382Z,43.55
2023-03-29T23:38:15.556Z,43.46
2023-03-29T23:41:21.073Z,43.87
2023-03-29T23:44:27.896Z,44.60
2023-03-29T23:47:31.914Z,44.84
2023-03-29T23:50:36.046Z,45.19
2023-03-29T23:53:40.560Z,45.09
2023-03-29T23:56:46.898Z,45.44
2023-03-29T23:59:52.856Z,45.80
